Time;durP1;ratioP1;P1;durP2;ratioP2;P2;SDS_P1;SDS_P2;PMS_P1;PMS_P2;Temp;Humidity;BMP_temperature;BMP_pressure;BME280_temperature;BME280_humidity;BME280_pressure;Samples;Min_cycle;Max_cycle;Signal;HPM_P1;HPM_P2
2021/04/25 00:03:09;;;;;;;18.80;8.85;;;17.10;51.60;;;;;;12135761;28;20550;-76
2021/04/25 00:08:56;;;;;;;16.75;7.90;;;17.10;51.80;;;;;;12130041;28;20052;-75
2021/04/25 00:14:42;;;;;;;16.23;8.32;;;17.10;52.00;;;;;;12129948;28;20058;-75
2021/04/25 00:20:29;;;;;;;14.35;7.50;;;17.00;51.80;;;;;;12129456;28;20048;-74
2021/04/25 00:26:16;;;;;;;15.65;7.30;;;17.10;51.80;;;;;;12128219;27;20070;-75
2021/04/25 00:32:04;;;;;;;26.23;8.25;;;16.90;51.60;;;;;;12125367;27;20176;-75
2021/04/25 00:37:50;;;;;;;20.98;8.25;;;16.90;51.60;;;;;;12125617;28;20071;-74
2021/04/25 10:13:47;;;;;;;104.18;57.67;;;15.40;57.10;;;;;;12056246;27;20115;-73
2021/04/25 10:19:34;;;;;;;29.63;10.00;;;15.80;56.30;;;;;;12042077;28;20040;-74
2021/04/25 10:25:32;;;;;;;18.85;7.68;;;16.20;55.50;;;;;;12076740;28;20053;-74
2021/04/25 10:31:26;;;;;;;15.50;7.28;;;16.60;52.80;;;;;;12073082;28;20048;-76
2021/04/25 10:37:12;;;;;;;23.17;6.95;;;17.00;52.40;;;;;;12067761;28;20120;-74
2021/04/25 10:43:01;;;;;;;15.27;6.03;;;17.20;52.70;;;;;;12071432;28;20052;-74
2021/04/25 10:48:50;;;;;;;17.50;7.28;;;17.30;51.50;;;;;;12070182;28;20058;-73
2021/04/25 10:55:17;;;;;;;14.98;7.75;;;17.50;52.30;;;;;;12070743;28;20729;-73
2021/04/25 11:01:04;;;;;;;18.08;7.43;;;17.50;52.00;;;;;;12070815;28;21286;-73
2021/04/25 11:06:51;;;;;;;21.38;7.63;;;17.80;52.50;;;;;;12067927;28;20064;-73
2021/04/25 11:12:46;;;;;;;20.30;8.40;;;17.90;50.90;;;;;;12068642;28;20087;-73
2021/04/25 11:18:51;;;;;;;21.38;7.50;;;17.70;51.10;;;;;;12069311;28;20063;-74
2021/04/25 11:24:38;;;;;;;20.23;8.18;;;17.80;50.30;;;;;;12040598;28;20044;-74
2021/04/25 11:30:40;;;;;;;16.80;7.57;;;17.90;50.60;;;;;;12033766;28;20414;-73
2021/04/25 11:36:37;;;;;;;18.40;7.72;;;18.10;50.40;;;;;;12036171;28;20135;-71
2021/04/25 11:42:29;;;;;;;28.55;8.85;;;18.20;48.10;;;;;;12039485;28;20059;-73
2021/04/25 11:48:18;;;;;;;20.90;7.47;;;18.50;48.70;;;;;;12032599;28;20696;-74
2021/04/25 11:54:19;;;;;;;14.50;6.72;;;18.70;47.30;;;;;;12037623;28;20136;-73
2021/04/25 12:00:08;;;;;;;17.30;7.18;;;18.60;46.40;;;;;;12036696;28;20418;-73
2021/04/25 12:05:57;;;;;;;17.27;7.28;;;18.90;46.70;;;;;;12037612;28;20048;-74
2021/04/25 12:11:46;;;;;;;16.17;6.80;;;18.90;46.00;;;;;;12036942;28;20052;-73
2021/04/25 12:17:32;;;;;;;18.98;6.80;;;19.20;46.40;;;;;;12035463;28;20056;-73
2021/04/25 12:23:21;;;;;;;15.10;6.60;;;19.10;45.10;;;;;;12035964;28;20114;-72
2021/04/25 12:29:08;;;;;;;17.40;7.30;;;19.00;44.00;;;;;;12036939;28;20473;-72
2021/04/25 12:34:56;;;;;;;17.77;6.95;;;19.00;45.60;;;;;;12033135;28;20049;-72
2021/04/25 12:40:42;;;;;;;16.13;6.32;;;19.20;44.60;;;;;;12034370;28;20057;-73
2021/04/25 12:46:29;;;;;;;14.98;6.10;;;19.40;44.40;;;;;;12033590;28;20041;-73
2021/04/25 12:52:16;;;;;;;15.13;6.43;;;19.60;43.30;;;;;;12033662;28;20048;-72
2021/04/25 12:58:08;;;;;;;14.02;5.95;;;19.70;44.30;;;;;;12032894;28;20056;-73
2021/04/25 13:03:56;;;;;;;19.13;6.57;;;19.80;43.20;;;;;;12037499;28;20056;-72
2021/04/25 13:09:43;;;;;;;17.70;6.20;;;19.80;43.30;;;;;;12034167;28;20048;-72
2021/04/25 13:15:35;;;;;;;39.65;22.27;;;19.80;44.80;;;;;;12032149;28;20506;-78
2021/04/25 13:21:40;;;;;;;13.38;7.43;;;19.70;45.40;;;;;;12036197;28;20049;-73
2021/04/25 13:27:27;;;;;;;14.13;5.97;;;19.90;44.20;;;;;;12029352;28;20063;-73
2021/04/25 13:33:15;;;;;;;16.10;6.45;;;20.20;43.80;;;;;;12025885;28;20052;-75
2021/04/25 13:39:02;;;;;;;18.63;5.75;;;20.40;44.10;;;;;;12025072;28;20718;-73
2021/04/25 13:44:49;;;;;;;17.77;6.15;;;20.70;43.60;;;;;;12034057;28;20051;-72
2021/04/25 13:50:35;;;;;;;21.85;5.50;;;20.60;42.50;;;;;;12029080;28;20059;-72
2021/04/25 13:56:23;;;;;;;15.93;5.78;;;20.60;43.30;;;;;;12031499;28;20053;-73
2021/04/25 14:02:11;;;;;;;15.00;5.45;;;20.40;41.50;;;;;;12036259;28;20045;-73
2021/04/25 14:07:57;;;;;;;11.10;5.35;;;20.40;42.70;;;;;;12028782;28;20075;-74
2021/04/25 14:13:45;;;;;;;14.27;5.60;;;20.60;41.20;;;;;;12033226;28;20044;-74
2021/04/25 14:19:31;;;;;;;12.07;5.30;;;20.20;39.90;;;;;;12026694;28;20047;-74
2021/04/25 14:25:19;;;;;;;14.55;4.78;;;20.30;42.00;;;;;;12028565;28;20049;-73
2021/04/25 14:31:06;;;;;;;11.18;4.72;;;20.40;41.90;;;;;;12029654;28;20566;-74
2021/04/25 14:36:52;;;;;;;16.60;5.10;;;20.60;41.50;;;;;;12017215;28;20044;-74
2021/04/25 14:42:39;;;;;;;10.43;4.60;;;20.80;40.80;;;;;;12028478;28;20041;-71
2021/04/25 14:48:26;;;;;;;9.55;4.75;;;20.90;41.10;;;;;;12026951;28;20060;-72
2021/04/25 14:54:12;;;;;;;11.05;5.07;;;21.00;41.00;;;;;;12027422;28;20059;-72
2021/04/25 14:59:59;;;;;;;16.63;5.13;;;21.20;41.70;;;;;;12035267;28;20044;-72
2021/04/25 15:05:46;;;;;;;65.70;33.85;;;21.20;41.40;;;;;;12033366;28;20446;-72
2021/04/25 15:11:32;;;;;;;12.18;5.28;;;21.00;42.20;;;;;;12037566;28;20057;-73
2021/04/25 15:17:19;;;;;;;12.55;4.78;;;21.10;40.80;;;;;;12037941;28;20045;-74
2021/04/25 15:23:07;;;;;;;19.00;5.45;;;21.20;40.80;;;;;;12037572;28;20049;-73
2021/04/25 15:28:53;;;;;;;14.20;6.32;;;21.10;41.20;;;;;;12038828;28;20044;-73
2021/04/25 15:34:42;;;;;;;15.88;5.50;;;21.10;41.50;;;;;;12038212;28;20053;-74
2021/04/25 15:40:32;;;;;;;9.73;4.80;;;20.60;43.00;;;;;;12038744;28;20410;-74
2021/04/25 15:46:18;;;;;;;9.68;5.28;;;20.90;41.00;;;;;;12038149;28;20056;-74
2021/04/25 15:52:06;;;;;;;14.00;6.30;;;21.20;41.90;;;;;;12036353;28;20053;-74
2021/04/25 15:57:53;;;;;;;15.32;5.90;;;21.30;41.20;;;;;;12036562;28;20893;-73
2021/04/25 16:03:39;;;;;;;12.80;6.35;;;21.20;41.30;;;;;;12036371;28;20052;-74
2021/04/25 16:09:27;;;;;;;16.60;5.95;;;20.90;42.10;;;;;;12036699;28;20048;-73
2021/04/25 16:15:15;;;;;;;18.70;7.22;;;20.80;42.50;;;;;;12034729;28;20075;-73
2021/04/25 16:21:02;;;;;;;21.23;7.78;;;20.90;42.60;;;;;;12031694;28;20096;-72
2021/04/25 16:26:48;;;;;;;15.95;6.30;;;21.10;42.00;;;;;;12036775;28;20088;-72
2021/04/25 16:32:36;;;;;;;14.30;7.90;;;21.50;42.60;;;;;;12035001;28;20048;-73
2021/04/25 16:38:23;;;;;;;12.70;7.07;;;22.90;40.20;;;;;;12034590;28;20123;-73
2021/04/25 16:44:09;;;;;;;74.22;42.25;;;24.90;37.50;;;;;;12034617;28;20055;-72
2021/04/25 16:49:57;;;;;;;20.77;11.10;;;25.40;36.30;;;;;;12025856;28;20045;-72
2021/04/25 16:55:44;;;;;;;20.60;10.73;;;25.40;36.00;;;;;;12033926;28;20079;-72
2021/04/25 17:01:30;;;;;;;22.02;8.05;;;24.50;37.10;;;;;;12025178;28;20075;-73
2021/04/25 17:07:18;;;;;;;16.15;8.30;;;24.20;37.30;;;;;;12030522;28;20048;-73
2021/04/25 17:13:04;;;;;;;12.93;6.43;;;24.40;37.40;;;;;;12033500;28;20502;-73
2021/04/25 17:18:51;;;;;;;17.55;7.72;;;24.40;37.60;;;;;;12031370;28;20629;-73
2021/04/25 17:24:39;;;;;;;13.35;6.60;;;24.80;36.80;;;;;;12038105;28;20063;-73
2021/04/25 17:30:25;;;;;;;18.10;7.10;;;24.10;38.00;;;;;;12030283;28;20044;-74
2021/04/25 17:36:11;;;;;;;16.10;7.03;;;22.70;39.70;;;;;;12035509;28;20602;-75
2021/04/25 17:42:01;;;;;;;15.77;7.25;;;21.70;41.40;;;;;;12035123;28;20052;-75
2021/04/25 17:47:49;;;;;;;14.45;7.22;;;21.10;42.90;;;;;;12035207;28;20045;-76
2021/04/25 17:53:37;;;;;;;14.85;7.38;;;20.60;43.80;;;;;;12031727;28;20498;-76
2021/04/25 17:59:25;;;;;;;16.20;7.35;;;20.30;44.60;;;;;;12032445;28;20120;-76
2021/04/25 18:05:13;;;;;;;15.82;7.28;;;19.90;45.00;;;;;;12035971;28;20490;-76
2021/04/25 18:11:00;;;;;;;16.20;6.70;;;19.60;45.80;;;;;;12013941;28;20057;-74
2021/04/25 18:16:48;;;;;;;35.45;20.13;;;19.40;47.00;;;;;;11994444;28;20052;-73
2021/04/25 18:22:35;;;;;;;13.45;7.25;;;19.20;47.00;;;;;;12016520;28;20868;-76
2021/04/25 18:28:22;;;;;;;17.02;8.50;;;19.10;46.90;;;;;;12038054;28;20056;-76
2021/04/25 18:34:10;;;;;;;17.55;7.65;;;18.90;46.90;;;;;;12039138;28;20057;-77
2021/04/25 18:39:56;;;;;;;18.58;7.85;;;18.70;48.00;;;;;;12057815;28;20076;-78
2021/04/25 18:45:42;;;;;;;24.17;7.57;;;18.60;47.90;;;;;;12042851;28;20466;-76
2021/04/25 18:51:30;;;;;;;16.35;7.95;;;18.40;47.90;;;;;;12042887;28;20427;-76
2021/04/25 18:57:17;;;;;;;16.42;7.50;;;18.20;48.50;;;;;;12041747;28;20101;-74
2021/04/25 19:03:10;;;;;;;26.92;8.13;;;17.90;48.90;;;;;;12045494;28;20106;-77
2021/04/25 19:09:01;;;;;;;14.50;7.95;;;17.80;49.10;;;;;;12062750;28;20056;-77
2021/04/25 19:14:48;;;;;;;21.77;8.10;;;17.50;49.30;;;;;;12051909;28;20071;-76
2021/04/25 19:20:35;;;;;;;19.65;7.35;;;17.60;49.20;;;;;;12044860;28;20087;-76
2021/04/25 19:26:23;;;;;;;16.13;7.13;;;17.50;49.40;;;;;;12044288;28;20052;-77
2021/04/25 19:32:09;;;;;;;16.80;8.45;;;17.30;49.30;;;;;;12042172;28;20057;-77
2021/04/25 19:37:56;;;;;;;17.35;7.35;;;17.20;49.30;;;;;;12036784;28;20064;-76
2021/04/25 19:43:44;;;;;;;15.82;7.20;;;17.10;49.40;;;;;;12037091;28;20411;-76
2021/04/25 19:49:30;;;;;;;20.45;7.68;;;17.20;49.20;;;;;;12046609;28;20483;-76
2021/04/25 19:55:17;;;;;;;16.23;7.35;;;17.00;49.10;;;;;;12040049;28;20050;-76
2021/04/25 20:01:07;;;;;;;16.55;6.80;;;16.80;49.20;;;;;;12039717;28;20048;-76
2021/04/25 20:06:53;;;;;;;14.45;6.78;;;16.80;49.30;;;;;;12045692;28;20052;-77
2021/04/25 20:12:41;;;;;;;22.88;7.90;;;16.70;49.00;;;;;;12038437;28;20056;-76
2021/04/25 20:18:28;;;;;;;18.58;6.55;;;16.60;49.10;;;;;;12040450;28;20060;-76
2021/04/25 20:24:15;;;;;;;15.43;6.45;;;16.60;48.90;;;;;;12040118;28;20079;-77
2021/04/25 20:30:02;;;;;;;12.23;5.97;;;16.40;49.20;;;;;;12041647;28;20053;-77
2021/04/25 20:35:50;;;;;;;13.82;5.80;;;16.30;49.20;;;;;;12041287;28;20056;-77
2021/04/25 20:41:36;;;;;;;14.93;5.97;;;16.30;49.20;;;;;;12041439;28;20061;-76
2021/04/25 20:47:23;;;;;;;15.45;6.35;;;16.20;49.30;;;;;;12042632;28;20056;-76
2021/04/25 20:53:13;;;;;;;16.10;5.68;;;16.10;49.30;;;;;;12034357;28;20044;-77
2021/04/25 20:58:59;;;;;;;12.02;5.07;;;16.00;49.60;;;;;;12034628;28;20565;-77
2021/04/25 21:04:46;;;;;;;17.88;6.20;;;16.00;49.70;;;;;;12037084;28;20400;-77
2021/04/25 21:10:35;;;;;;;14.25;5.93;;;15.80;49.90;;;;;;12033219;28;20178;-76
2021/04/25 21:16:22;;;;;;;15.40;5.50;;;15.70;50.00;;;;;;12033897;28;20109;-77
2021/04/25 21:22:09;;;;;;;17.55;5.22;;;15.80;50.10;;;;;;12038830;28;20082;-77
2021/04/25 21:27:56;;;;;;;13.55;5.53;;;15.80;50.10;;;;;;12040246;28;20060;-77
2021/04/25 21:33:43;;;;;;;13.85;5.20;;;15.80;49.90;;;;;;12035594;28;20106;-76
2021/04/25 21:39:29;;;;;;;12.25;5.95;;;15.90;50.30;;;;;;12034203;28;20048;-76
2021/04/25 21:45:27;;;;;;;12.00;5.50;;;15.80;50.30;;;;;;12034306;28;20048;-75
2021/04/25 21:51:16;;;;;;;11.75;5.53;;;15.80;50.20;;;;;;12033887;28;20067;-76
2021/04/25 21:57:03;;;;;;;13.93;5.65;;;15.70;50.40;;;;;;12042065;28;20430;-74
2021/04/25 22:02:51;;;;;;;11.35;5.03;;;15.60;50.70;;;;;;12039451;28;20045;-74
2021/04/25 22:08:37;;;;;;;9.02;5.10;;;15.50;50.90;;;;;;12039267;28;20063;-76
2021/04/25 22:14:23;;;;;;;12.57;5.05;;;15.50;51.10;;;;;;12035443;28;20045;-77
2021/04/25 22:20:13;;;;;;;13.65;5.85;;;15.50;51.10;;;;;;12043295;28;20087;-77
2021/04/25 22:26:00;;;;;;;17.85;5.80;;;15.40;51.50;;;;;;12045227;28;20075;-78
2021/04/25 22:31:46;;;;;;;12.60;5.00;;;15.30;51.40;;;;;;11970434;28;20056;-78
2021/04/25 22:37:34;;;;;;;12.73;5.18;;;15.30;51.70;;;;;;12027544;28;20052;-77
